createdAt,value
2022-10-30T00:01:22.184Z,99527.68
2022-10-30T00:03:49.939Z,99532.02
2022-10-30T00:06:18.568Z,99526.11
2022-10-30T00:08:46.252Z,99524.97
2022-10-30T00:11:14.266Z,99524.94
2022-10-30T00:13:44.633Z,99521.09
2022-10-30T00:16:12.400Z,99520.03
2022-10-30T00:18:42.280Z,99519.77
2022-10-30T00:21:15.093Z,99516.54
2022-10-30T00:23:52.390Z,99509.74
2022-10-30T00:26:22.606Z,99513.69
2022-10-30T00:28:51.991Z,99515.34
2022-10-30T00:31:20.345Z,99516.28
2022-10-30T00:33:52.700Z,99517.70
2022-10-30T00:36:22.286Z,99518.83
2022-10-30T00:38:50.174Z,99518.58
2022-10-30T00:41:23.574Z,99514.83
2022-10-30T00:43:52.215Z,99513.85
2022-10-30T00:46:27.955Z,99508.09
2022-10-30T00:49:16.630Z,99507.54
2022-10-30T00:51:55.188Z,99502.70
2022-10-30T00:54:24.227Z,99503.42
2022-10-30T00:56:54.377Z,99499.15
2022-10-30T00:59:35.110Z,99494.42
2022-10-30T01:02:04.937Z,99494.95
2022-10-30T01:04:37.777Z,99489.53
2022-10-30T01:07:10.756Z,99489.39
2022-10-30T01:09:40.377Z,99488.33
2022-10-30T01:12:08.947Z,99488.45
2022-10-30T01:14:41.272Z,99481.91
2022-10-30T01:17:21.307Z,99481.92
2022-10-30T01:20:06.734Z,99479.02
2022-10-30T01:22:52.753Z,99477.70
2022-10-30T01:25:51.989Z,99476.83
2022-10-30T01:28:39.194Z,99479.31
2022-10-30T01:31:36.164Z,99481.64
2022-10-30T01:34:18.597Z,99487.92
2022-10-30T01:37:14.143Z,99501.31
2022-10-30T01:39:42.126Z,99506.66
2022-10-30T01:42:28.636Z,99509.70
2022-10-30T01:44:57.508Z,99506.69
2022-10-30T01:47:39.457Z,99504.55
2022-10-30T01:50:26.497Z,99503.25
2022-10-30T01:53:09.013Z,99503.71
2022-10-30T01:55:49.235Z,99506.44
2022-10-30T01:58:22.972Z,99509.78
2022-10-30T02:00:57.147Z,99507.58
2022-10-30T02:03:26.795Z,99504.77
2022-10-30T02:05:54.793Z,99500.64
2022-10-30T02:08:24.543Z,99498.55
2022-10-30T02:10:53.683Z,99496.06
2022-10-30T02:13:32.750Z,99496.05
2022-10-30T02:16:01.029Z,99491.59
2022-10-30T02:18:30.259Z,99492.95
2022-10-30T02:20:58.514Z,99489.21
2022-10-30T02:23:26.416Z,99485.41
2022-10-30T02:25:55.208Z,99489.30
2022-10-30T02:28:23.272Z,99494.65
2022-10-30T02:30:50.976Z,99496.69
2022-10-30T02:35:52.077Z,99499.53
2022-10-30T02:38:19.829Z,99496.03
2022-10-30T02:40:47.629Z,99493.26
2022-10-30T02:43:15.362Z,99489.75
2022-10-30T02:45:43.995Z,99489.67
2022-10-30T02:48:12.496Z,99488.17
2022-10-30T02:50:40.338Z,99485.27
2022-10-30T02:53:08.055Z,99481.93
2022-10-30T02:55:35.764Z,99484.03
2022-10-30T02:58:04.041Z,99486.88
2022-10-30T03:00:32.113Z,99489.04
2022-10-30T03:02:59.942Z,99491.47
2022-10-30T03:05:27.779Z,99489.70
2022-10-30T03:07:55.933Z,99487.82
2022-10-30T03:10:24.012Z,99493.09
2022-10-30T03:12:53.297Z,99494.70
2022-10-30T03:15:21.840Z,99491.61
2022-10-30T03:17:52.539Z,99492.42
2022-10-30T03:20:20.498Z,99492.86
2022-10-30T03:22:48.222Z,99494.96
2022-10-30T03:25:16.109Z,99496.75
2022-10-30T03:27:44.813Z,99495.11
2022-10-30T03:30:12.701Z,99497.30
2022-10-30T03:32:40.729Z,99494.79
2022-10-30T03:35:08.566Z,99491.48
2022-10-30T03:37:36.294Z,99493.00
2022-10-30T03:40:04.575Z,99488.94
2022-10-30T03:42:34.121Z,99484.52
2022-10-30T03:45:02.103Z,99485.26
2022-10-30T03:47:30.220Z,99484.19
2022-10-30T03:49:57.946Z,99480.25
2022-10-30T03:52:27.150Z,99482.60
2022-10-30T03:54:54.868Z,99483.63
2022-10-30T03:57:22.760Z,99479.90
2022-10-30T04:00:09.957Z,99475.23
2022-10-30T04:02:53.189Z,99471.02
2022-10-30T04:05:23.746Z,99477.00
2022-10-30T04:08:01.612Z,99478.45
2022-10-30T04:10:31.554Z,99476.46
2022-10-30T04:13:04.012Z,99474.74
2022-10-30T04:15:32.666Z,99475.68
2022-10-30T04:18:01.143Z,99477.20
2022-10-30T04:20:30.177Z,99479.08
2022-10-30T04:23:03.937Z,99473.91
2022-10-30T04:25:34.313Z,99464.66
2022-10-30T04:28:03.282Z,99462.17
2022-10-30T04:30:35.266Z,99459.38
2022-10-30T04:33:05.782Z,99458.99
2022-10-30T04:35:38.836Z,99458.04
2022-10-30T04:38:16.442Z,99457.16
2022-10-30T04:40:44.656Z,99455.47
2022-10-30T04:43:14.202Z,99451.89
2022-10-30T04:45:42.892Z,99448.83
2022-10-30T04:48:13.332Z,99447.30
2022-10-30T04:50:43.751Z,99447.85
2022-10-30T04:53:17.406Z,99448.33
2022-10-30T04:55:46.932Z,99445.05
2022-10-30T04:58:14.760Z,99442.44
2022-10-30T05:00:44.303Z,99443.98
2022-10-30T05:03:24.388Z,99443.33
2022-10-30T05:06:02.134Z,99445.81
2022-10-30T05:08:30.585Z,99443.06
2022-10-30T05:10:59.660Z,99438.80
2022-10-30T05:13:27.390Z,99436.59
2022-10-30T05:15:55.691Z,99438.23
2022-10-30T05:18:24.369Z,99435.08
2022-10-30T05:20:52.242Z,99434.21
2022-10-30T05:23:19.935Z,99435.33
2022-10-30T05:25:47.958Z,99436.73
2022-10-30T05:28:16.460Z,99438.98
2022-10-30T05:30:47.893Z,99443.70
2022-10-30T05:33:30.084Z,99448.58
2022-10-30T05:35:58.080Z,99452.91
2022-10-30T05:38:25.856Z,99448.02
2022-10-30T05:40:54.254Z,99445.12
2022-10-30T05:43:21.971Z,99445.22
2022-10-30T05:45:50.351Z,99446.98
2022-10-30T05:48:18.816Z,99449.90
2022-10-30T05:50:47.531Z,99449.39
2022-10-30T05:53:33.445Z,99444.91
2022-10-30T05:56:01.796Z,99440.86
2022-10-30T05:58:32.681Z,99444.05
2022-10-30T06:01:07.527Z,99444.70
2022-10-30T06:03:45.856Z,99444.56
2022-10-30T06:06:14.134Z,99446.11
2022-10-30T06:08:42.052Z,99444.52
2022-10-30T06:11:28.403Z,99452.89
2022-10-30T06:13:59.365Z,99454.17
2022-10-30T06:16:44.956Z,99452.39
2022-10-30T06:19:27.464Z,99448.32
2022-10-30T06:22:02.933Z,99447.88
2022-10-30T06:24:49.291Z,99450.39
2022-10-30T06:27:25.233Z,99448.02
2022-10-30T06:29:54.961Z,99442.93
2022-10-30T06:32:22.788Z,99443.70
2022-10-30T06:34:50.982Z,99449.98
2022-10-30T06:37:19.316Z,99451.10
2022-10-30T06:39:47.409Z,99449.82
2022-10-30T06:42:30.016Z,99449.63
2022-10-30T06:45:10.955Z,99448.94
2022-10-30T06:47:39.302Z,99445.80
2022-10-30T06:50:09.464Z,99449.75
2022-10-30T06:52:38.030Z,99444.72
2022-10-30T06:55:06.344Z,99445.30
2022-10-30T06:57:56.235Z,99451.61
2022-10-30T07:00:43.305Z,99462.71
2022-10-30T07:03:34.057Z,99464.16
2022-10-30T07:06:02.254Z,99456.32
2022-10-30T07:08:30.345Z,99448.27
2022-10-30T07:10:58.927Z,99449.90
2022-10-30T07:13:45.569Z,99452.90
2022-10-30T07:16:48.440Z,99450.93
2022-10-30T07:19:17.170Z,99446.88
2022-10-30T07:21:45.262Z,99449.70
2022-10-30T07:24:13.067Z,99450.13
2022-10-30T07:27:07.091Z,99445.66
2022-10-30T07:29:42.496Z,99443.18
2022-10-30T07:32:25.757Z,99454.70
2022-10-30T07:35:13.664Z,99453.60
2022-10-30T07:38:11.790Z,99433.26
2022-10-30T07:40:52.036Z,99430.09
2022-10-30T07:43:38.762Z,99436.82
2022-10-30T07:46:44.829Z,99444.91
2022-10-30T07:49:30.825Z,99452.95
2022-10-30T07:52:02.981Z,99455.88
2022-10-30T07:54:30.825Z,99458.23
2022-10-30T07:57:06.121Z,99459.42
2022-10-30T08:03:02.064Z,99464.85
2022-10-30T08:05:56.069Z,99462.96
2022-10-30T08:08:29.906Z,99456.21
2022-10-30T08:11:17.929Z,99453.34
2022-10-30T08:13:45.675Z,99454.63
2022-10-30T08:16:13.496Z,99453.44
2022-10-30T08:18:42.741Z,99448.70
2022-10-30T08:21:11.497Z,99443.33
2022-10-30T08:23:45.851Z,99432.65
2022-10-30T08:26:15.699Z,99433.98
2022-10-30T08:28:43.446Z,99426.00
2022-10-30T08:31:12.063Z,99422.75
2022-10-30T08:33:58.125Z,99419.52
2022-10-30T08:36:52.160Z,99426.88
2022-10-30T08:39:20.870Z,99426.98
2022-10-30T08:42:00.966Z,99426.63
2022-10-30T08:44:34.081Z,99426.71
2022-10-30T08:47:29.583Z,99426.04
2022-10-30T08:49:57.300Z,99418.61
2022-10-30T08:52:28.464Z,99421.77
2022-10-30T08:54:57.474Z,99428.10
2022-10-30T08:57:27.790Z,99429.04
2022-10-30T08:59:57.098Z,99425.48
2022-10-30T09:02:46.586Z,99432.98
2022-10-30T09:05:33.666Z,99440.58
2022-10-30T09:08:20.187Z,99446.25
2022-10-30T09:11:01.885Z,99442.58
2022-10-30T09:13:30.020Z,99441.00
2022-10-30T09:16:02.640Z,99439.92
2022-10-30T09:18:32.054Z,99440.05
2022-10-30T09:21:03.203Z,99437.33
2022-10-30T09:23:34.552Z,99435.73
2022-10-30T09:26:21.053Z,99434.29
2022-10-30T09:28:54.529Z,99437.82
2022-10-30T09:31:41.033Z,99440.67
2022-10-30T09:34:10.103Z,99437.04
2022-10-30T09:36:46.371Z,99429.73
2022-10-30T09:39:14.763Z,99429.81
2022-10-30T09:42:11.219Z,99430.45
2022-10-30T09:45:08.182Z,99422.65
2022-10-30T09:47:50.878Z,99412.15
2022-10-30T09:50:29.584Z,99403.10
2022-10-30T09:53:13.027Z,99409.66
2022-10-30T09:56:06.800Z,99410.14
2022-10-30T09:58:53.626Z,99406.11
2022-10-30T10:01:48.210Z,99412.18
2022-10-30T10:04:35.412Z,99422.88
2022-10-30T10:07:29.358Z,99423.98
2022-10-30T10:10:37.772Z,99418.61
2022-10-30T10:13:31.061Z,99407.79
2022-10-30T10:16:10.567Z,99407.43
2022-10-30T10:18:45.553Z,99404.69
2022-10-30T10:21:23.994Z,99401.35
2022-10-30T10:23:55.402Z,99394.52
2022-10-30T10:26:48.969Z,99390.21
2022-10-30T10:29:28.613Z,99388.52
2022-10-30T10:32:38.579Z,99380.83
2022-10-30T10:35:24.700Z,99380.09
2022-10-30T10:37:58.645Z,99375.92
2022-10-30T10:40:52.753Z,99376.95
2022-10-30T10:43:29.485Z,99372.20
2022-10-30T10:46:20.152Z,99370.60
2022-10-30T10:49:01.453Z,99372.94
2022-10-30T10:51:37.844Z,99374.73
2022-10-30T10:54:17.006Z,99370.91
2022-10-30T10:56:48.542Z,99368.81
2022-10-30T10:59:21.565Z,99369.77
2022-10-30T11:02:25.044Z,99371.55
2022-10-30T11:04:55.453Z,99374.35
2022-10-30T11:07:32.280Z,99373.02
2022-10-30T11:09:59.931Z,99375.10
2022-10-30T11:12:33.878Z,99374.61
2022-10-30T11:15:29.920Z,99374.54
2022-10-30T11:18:10.745Z,99374.41
2022-10-30T11:20:49.115Z,99365.75
2022-10-30T11:23:47.284Z,99365.80
2022-10-30T11:26:17.781Z,99363.91
2022-10-30T11:28:58.472Z,99357.54
2022-10-30T11:31:38.226Z,99356.41
2022-10-30T11:34:29.042Z,99357.79
2022-10-30T11:36:56.773Z,99355.77
2022-10-30T11:39:25.844Z,99356.34
2022-10-30T11:42:02.171Z,99353.24
2022-10-30T11:44:45.517Z,99359.80
2022-10-30T11:47:15.683Z,99359.23
2022-10-30T11:49:53.873Z,99359.52
2022-10-30T11:52:25.639Z,99357.13
2022-10-30T11:54:58.119Z,99350.41
2022-10-30T11:57:54.882Z,99350.73
2022-10-30T12:00:27.948Z,99349.51
2022-10-30T12:03:00.981Z,99343.15
2022-10-30T12:05:36.703Z,99343.40
2022-10-30T12:08:07.402Z,99343.73
2022-10-30T12:10:58.779Z,99344.16
2022-10-30T12:13:28.231Z,99338.71
2022-10-30T12:16:19.210Z,99337.15
2022-10-30T12:19:04.403Z,99336.55
2022-10-30T12:21:38.991Z,99334.23
2022-10-30T12:24:15.268Z,99334.69
2022-10-30T12:26:49.425Z,99327.55
2022-10-30T12:29:20.799Z,99334.36
2022-10-30T12:32:04.503Z,99328.48
2022-10-30T12:34:40.859Z,99325.38
2022-10-30T12:37:40.083Z,99325.91
2022-10-30T12:40:29.910Z,99321.77
2022-10-30T12:43:02.725Z,99320.54
2022-10-30T12:45:37.637Z,99319.56
2022-10-30T12:48:23.504Z,99319.48
2022-10-30T12:51:23.926Z,99318.41
2022-10-30T12:53:58.666Z,99317.35
2022-10-30T12:56:32.245Z,99311.95
2022-10-30T12:59:38.928Z,99307.88
2022-10-30T13:02:15.657Z,99309.47
2022-10-30T13:04:47.752Z,99307.17
2022-10-30T13:07:51.976Z,99312.66
2022-10-30T13:10:52.539Z,99311.93
2022-10-30T13:13:22.351Z,99317.07
2022-10-30T13:15:53.526Z,99320.26
2022-10-30T13:18:26.946Z,99312.48
2022-10-30T13:21:06.908Z,99310.95
2022-10-30T13:23:45.983Z,99311.20
2022-10-30T13:26:32.720Z,99307.85
2022-10-30T13:29:37.265Z,99305.76
2022-10-30T13:32:18.290Z,99306.17
2022-10-30T13:34:52.033Z,99302.41
2022-10-30T13:37:49.785Z,99302.67
2022-10-30T13:40:26.824Z,99296.86
2022-10-30T13:43:19.724Z,99299.47
2022-10-30T13:46:27.518Z,99303.59
2022-10-30T13:49:29.573Z,99302.91
2022-10-30T13:52:06.362Z,99298.55
2022-10-30T13:54:40.736Z,99299.23
2022-10-30T13:57:18.639Z,99297.36
2022-10-30T13:59:52.458Z,99299.27
2022-10-30T14:03:10.896Z,99302.54
2022-10-30T14:05:58.528Z,99305.20
2022-10-30T14:08:50.426Z,99304.40
2022-10-30T14:11:18.231Z,99306.17
2022-10-30T14:13:55.457Z,99304.55
2022-10-30T14:16:42.580Z,99298.34
2022-10-30T14:19:15.172Z,99295.73
2022-10-30T14:21:55.003Z,99295.70
2022-10-30T14:24:30.453Z,99292.29
2022-10-30T14:27:04.383Z,99296.09
2022-10-30T14:29:34.847Z,99302.23
2022-10-30T14:32:22.643Z,99303.30
2022-10-30T14:34:50.638Z,99303.11
2022-10-30T14:37:25.177Z,99298.98
2022-10-30T14:39:54.545Z,99296.25
2022-10-30T14:42:50.763Z,99299.35
2022-10-30T14:45:29.257Z,99306.43
2022-10-30T14:48:23.539Z,99307.27
2022-10-30T14:51:00.438Z,99312.69
2022-10-30T14:54:06.009Z,99313.98
2022-10-30T14:56:51.158Z,99317.11
2022-10-30T14:59:18.889Z,99313.41
2022-10-30T15:02:16.301Z,99315.27
2022-10-30T15:05:23.779Z,99312.92
2022-10-30T15:07:56.171Z,99313.04
2022-10-30T15:10:36.128Z,99313.95
2022-10-30T15:13:12.801Z,99313.35
2022-10-30T15:15:40.622Z,99311.48
2022-10-30T15:18:15.881Z,99317.27
2022-10-30T15:20:49.623Z,99325.09
2022-10-30T15:23:43.853Z,99327.58
2022-10-30T15:26:20.927Z,99326.73
2022-10-30T15:28:53.763Z,99324.60
2022-10-30T15:31:24.408Z,99328.73
2022-10-30T15:33:54.471Z,99323.23
2022-10-30T15:36:25.443Z,99322.59
2022-10-30T15:39:12.408Z,99322.31
2022-10-30T15:41:48.918Z,99325.67
2022-10-30T15:44:23.555Z,99328.16
2022-10-30T15:46:54.247Z,99331.21
2022-10-30T15:49:29.056Z,99330.89
2022-10-30T15:51:57.568Z,99331.38
2022-10-30T15:54:27.361Z,99331.31
2022-10-30T15:59:54.620Z,99331.13
2022-10-30T16:02:24.453Z,99328.11
2022-10-30T16:04:53.224Z,99324.63
2022-10-30T16:07:29.075Z,99323.73
2022-10-30T16:09:59.418Z,99322.59
2022-10-30T16:12:31.666Z,99323.92
2022-10-30T16:15:06.749Z,99316.33
2022-10-30T16:17:35.347Z,99323.44
2022-10-30T16:20:04.367Z,99325.24
2022-10-30T16:22:36.339Z,99326.09
2022-10-30T16:25:07.669Z,99328.76
2022-10-30T16:27:43.987Z,99331.09
2022-10-30T16:30:14.626Z,99328.54
2022-10-30T16:32:48.377Z,99329.30
2022-10-30T16:35:16.190Z,99334.70
2022-10-30T16:37:44.844Z,99334.58
2022-10-30T16:40:19.294Z,99335.63
2022-10-30T16:42:58.329Z,99342.45
2022-10-30T16:45:32.233Z,99344.26
2022-10-30T16:48:09.169Z,99346.94
2022-10-30T16:50:38.630Z,99346.93
2022-10-30T16:53:20.750Z,99346.29
2022-10-30T16:55:48.948Z,99347.13
2022-10-30T16:58:17.742Z,99349.95
2022-10-30T17:04:15.397Z,99350.14
2022-10-30T17:06:44.976Z,99350.88
2022-10-30T17:09:22.429Z,99353.23
2022-10-30T17:12:13.920Z,99354.41
2022-10-30T17:14:52.477Z,99354.69
2022-10-30T17:17:30.463Z,99356.31
2022-10-30T17:20:01.490Z,99356.01
2022-10-30T17:22:29.525Z,99357.95
2022-10-30T17:24:59.523Z,99363.27
2022-10-30T17:27:49.210Z,99357.68
2022-10-30T17:30:34.705Z,99361.27
2022-10-30T17:33:22.125Z,99363.62
2022-10-30T17:35:51.576Z,99359.85
2022-10-30T17:38:19.305Z,99361.50
2022-10-30T17:40:47.555Z,99364.02
2022-10-30T17:43:15.455Z,99365.92
2022-10-30T17:45:44.098Z,99365.13
2022-10-30T17:48:17.664Z,99367.48
2022-10-30T17:50:45.450Z,99369.58
2022-10-30T17:53:16.692Z,99368.89
2022-10-30T17:55:49.605Z,99368.13
2022-10-30T17:58:19.519Z,99366.78
2022-10-30T18:00:47.278Z,99372.02
2022-10-30T18:03:14.971Z,99371.70
2022-10-30T18:05:43.925Z,99367.21
2022-10-30T18:08:11.663Z,99366.02
2022-10-30T18:10:39.309Z,99364.89
2022-10-30T18:13:06.974Z,99363.85
2022-10-30T18:15:36.918Z,99363.42
2022-10-30T18:18:05.571Z,99362.65
2022-10-30T18:20:33.906Z,99365.88
2022-10-30T18:23:01.967Z,99365.92
2022-10-30T18:25:35.953Z,99367.33
2022-10-30T18:28:03.904Z,99369.61
2022-10-30T18:30:31.855Z,99372.14
2022-10-30T18:32:59.875Z,99371.73
2022-10-30T18:35:36.499Z,99373.34
2022-10-30T18:38:05.973Z,99369.73
2022-10-30T18:40:34.485Z,99372.44
2022-10-30T18:43:02.969Z,99373.42
2022-10-30T18:45:37.556Z,99375.89
2022-10-30T18:48:05.961Z,99373.45
2022-10-30T18:50:33.800Z,99376.90
2022-10-30T18:53:02.143Z,99376.66
2022-10-30T18:55:37.088Z,99374.67
2022-10-30T18:58:06.262Z,99373.55
2022-10-30T19:00:58.228Z,99375.80
2022-10-30T19:03:24.029Z,99374.95
2022-10-30T19:05:52.337Z,99377.17
2022-10-30T19:08:20.048Z,99378.40
2022-10-30T19:10:47.991Z,99380.02
2022-10-30T19:13:21.195Z,99379.33
2022-10-30T19:15:59.012Z,99378.85
2022-10-30T19:18:29.078Z,99374.02
2022-10-30T19:21:06.460Z,99372.45
2022-10-30T19:23:35.964Z,99372.39
2022-10-30T19:26:03.885Z,99371.75
2022-10-30T19:28:32.871Z,99368.75
2022-10-30T19:31:00.978Z,99370.52
2022-10-30T19:33:28.772Z,99373.05
2022-10-30T19:36:06.673Z,99372.91
2022-10-30T19:38:34.415Z,99373.41
2022-10-30T19:41:02.196Z,99374.38
2022-10-30T19:43:30.276Z,99377.08
2022-10-30T19:45:58.264Z,99378.55
2022-10-30T19:48:56.781Z,99378.43
2022-10-30T19:51:13.854Z,99380.72
2022-10-30T19:53:42.393Z,99380.12
2022-10-30T19:56:12.893Z,99379.77
2022-10-30T19:58:41.185Z,99381.30
2022-10-30T20:01:12.500Z,99383.37
2022-10-30T20:03:40.335Z,99383.05
2022-10-30T20:06:14.828Z,99384.58
2022-10-30T20:08:42.645Z,99386.33
2022-10-30T20:11:10.325Z,99390.44
2022-10-30T20:13:38.133Z,99391.81
2022-10-30T20:16:06.564Z,99393.25
2022-10-30T20:18:35.744Z,99388.63
2022-10-30T20:21:08.570Z,99388.41
2022-10-30T20:23:37.006Z,99390.77
2022-10-30T20:26:22.487Z,99388.63
2022-10-30T20:28:51.453Z,99392.65
2022-10-30T20:31:19.487Z,99398.48
2022-10-30T20:33:47.386Z,99402.31
2022-10-30T20:36:15.590Z,99401.27
2022-10-30T20:38:43.728Z,99400.80
2022-10-30T20:41:24.276Z,99401.30
2022-10-30T20:43:52.431Z,99401.16
2022-10-30T20:46:21.290Z,99402.48
2022-10-30T20:48:49.498Z,99406.70
2022-10-30T20:51:17.421Z,99411.86
2022-10-30T20:53:45.117Z,99412.75
2022-10-30T20:56:13.165Z,99413.27
2022-10-30T20:58:42.288Z,99411.21
2022-10-30T21:01:10.988Z,99413.90
2022-10-30T21:03:38.906Z,99412.66
2022-10-30T21:06:09.867Z,99413.33
2022-10-30T21:08:38.240Z,99417.94
2022-10-30T21:11:07.027Z,99415.60
2022-10-30T21:13:35.949Z,99417.48
2022-10-30T21:16:06.893Z,99414.56
2022-10-30T21:18:35.359Z,99417.91
2022-10-30T21:21:05.712Z,99416.56
2022-10-30T21:23:33.974Z,99415.68
2022-10-30T21:26:07.321Z,99416.98
2022-10-30T21:28:35.317Z,99419.39
2022-10-30T21:31:05.338Z,99415.47
2022-10-30T21:33:34.837Z,99412.00
2022-10-30T21:36:12.942Z,99414.11
2022-10-30T21:38:42.696Z,99412.30
2022-10-30T21:41:16.253Z,99411.17
2022-10-30T21:43:48.530Z,99414.40
2022-10-30T21:46:16.624Z,99411.54
2022-10-30T21:48:44.279Z,99414.29
2022-10-30T21:51:15.200Z,99415.62
2022-10-30T21:53:44.474Z,99414.94
2022-10-30T21:56:14.700Z,99412.86
2022-10-30T21:58:43.297Z,99411.48
2022-10-30T22:01:17.844Z,99407.67
2022-10-30T22:03:46.797Z,99405.91
2022-10-30T22:06:16.699Z,99407.90
2022-10-30T22:08:49.164Z,99405.36
2022-10-30T22:11:18.019Z,99406.91
2022-10-30T22:13:46.767Z,99406.52
2022-10-30T22:16:14.986Z,99400.24
2022-10-30T22:18:42.762Z,99401.80
2022-10-30T22:21:12.914Z,99400.40
2022-10-30T22:23:42.019Z,99400.79
2022-10-30T22:26:18.423Z,99395.94
2022-10-30T22:28:47.170Z,99398.08
2022-10-30T22:31:17.512Z,99399.75
2022-10-30T22:33:46.236Z,99400.16
2022-10-30T22:36:33.290Z,99398.63
2022-10-30T22:39:07.781Z,99400.61
2022-10-30T22:41:37.544Z,99399.92
2022-10-30T22:44:08.940Z,99402.19
2022-10-30T22:46:37.375Z,99402.84
2022-10-30T22:49:05.589Z,99401.73
2022-10-30T22:51:35.048Z,99401.27
2022-10-30T22:54:05.595Z,99404.45
2022-10-30T22:56:35.339Z,99407.66
2022-10-30T22:59:06.146Z,99412.65
2022-10-30T23:01:36.260Z,99408.92
2022-10-30T23:04:05.498Z,99409.52
2022-10-30T23:06:34.629Z,99413.16
2022-10-30T23:09:06.460Z,99412.60
2022-10-30T23:11:34.463Z,99414.47
2022-10-30T23:14:02.156Z,99413.42
2022-10-30T23:16:30.056Z,99413.32
2022-10-30T23:19:00.253Z,99409.41
2022-10-30T23:21:30.127Z,99406.47
2022-10-30T23:23:58.597Z,99409.27
2022-10-30T23:26:30.548Z,99409.89
2022-10-30T23:29:01.247Z,99408.95
2022-10-30T23:31:35.281Z,99408.44
2022-10-30T23:34:06.887Z,99410.77
2022-10-30T23:36:34.834Z,99408.80
2022-10-30T23:39:06.353Z,99408.84
2022-10-30T23:41:34.545Z,99409.23
2022-10-30T23:44:05.487Z,99408.79
2022-10-30T23:46:34.605Z,99408.98
2022-10-30T23:49:03.063Z,99405.59
2022-10-30T23:51:31.520Z,99407.55
2022-10-30T23:53:59.215Z,99403.98
2022-10-30T23:56:27.075Z,99403.80
2022-10-30T23:58:55.363Z,99405.98
